Time;durP1;ratioP1;P1;durP2;ratioP2;P2;SDS_P1;SDS_P2;PMS_P1;PMS_P2;Temp;Humidity;BMP_temperature;BMP_pressure;BME280_temperature;BME280_humidity;BME280_pressure;Samples;Min_cycle;Max_cycle;Signal;HPM_P1;HPM_P2
2021/01/17 00:01:56;;;;;;;21.33;15.13;;;2.40;99.90;;;;;;6073729;23;20456;-84
2021/01/17 00:05:06;;;;;;;22.57;15.37;;;2.40;99.90;;;;;;6089710;23;20397;-86
2021/01/17 00:07:55;;;;;;;20.43;14.67;;;2.30;99.90;;;;;;6043400;23;20459;-84
2021/01/17 00:10:27;;;;;;;21.67;14.43;;;2.40;99.90;;;;;;6146076;23;20464;-85
2021/01/17 00:12:54;;;;;;;24.80;14.87;;;2.50;99.90;;;;;;6144576;23;20419;-84
2021/01/17 00:15:22;;;;;;;24.00;16.07;;;2.50;99.90;;;;;;6143295;23;20399;-84
2021/01/17 00:17:50;;;;;;;23.57;16.23;;;2.40;99.90;;;;;;6118438;23;20415;-84
2021/01/17 00:20:18;;;;;;;25.90;17.07;;;2.40;99.90;;;;;;6143015;23;20470;-85
2021/01/17 00:22:46;;;;;;;22.77;16.30;;;2.30;99.90;;;;;;6143426;23;20426;-85
2021/01/17 00:25:15;;;;;;;25.93;17.77;;;2.40;99.90;;;;;;6142914;23;20427;-84
2021/01/17 00:27:42;;;;;;;27.00;18.17;;;2.30;99.90;;;;;;6143583;23;20458;-84
2021/01/17 00:30:13;;;;;;;27.70;18.43;;;2.40;99.90;;;;;;6142904;23;20438;-84
2021/01/17 00:32:42;;;;;;;28.53;17.87;;;2.40;99.90;;;;;;6142552;23;20871;-85
2021/01/17 00:35:17;;;;;;;28.23;19.03;;;2.40;99.90;;;;;;6142890;23;20419;-84
2021/01/17 00:37:51;;;;;;;26.93;16.47;;;2.30;99.90;;;;;;6143116;23;20442;-85
2021/01/17 00:40:19;;;;;;;26.50;17.93;;;2.30;99.90;;;;;;6141837;23;20474;-84
2021/01/17 00:45:34;;;;;;;27.57;17.43;;;2.40;99.90;;;;;;6141586;23;20403;-85
2021/01/17 00:48:04;;;;;;;23.57;16.97;;;2.60;99.90;;;;;;6143410;23;20431;-85
2021/01/17 00:50:30;;;;;;;24.83;16.60;;;2.60;99.90;;;;;;6141763;23;20449;-85
2021/01/17 00:52:58;;;;;;;24.87;16.47;;;2.60;99.90;;;;;;6117337;23;20406;-85
2021/01/17 00:55:27;;;;;;;26.27;18.33;;;2.50;99.90;;;;;;6141622;23;20922;-86
2021/01/17 00:57:58;;;;;;;31.37;18.00;;;2.60;99.90;;;;;;6142684;23;20442;-85
2021/01/17 01:00:26;;;;;;;25.93;17.70;;;2.60;99.90;;;;;;6142940;23;20438;-85
2021/01/17 01:02:53;;;;;;;25.50;17.90;;;2.60;99.90;;;;;;6143771;23;20407;-85
2021/01/17 01:05:24;;;;;;;25.53;17.93;;;2.70;99.90;;;;;;6144814;23;20410;-85
2021/01/17 01:07:53;;;;;;;22.50;15.97;;;2.60;99.90;;;;;;6143325;23;20438;-85
2021/01/17 01:10:21;;;;;;;26.27;17.50;;;2.60;99.90;;;;;;6143708;23;20414;-85
2021/01/17 01:12:53;;;;;;;22.73;17.30;;;2.90;99.90;;;;;;6119923;23;20414;-85
2021/01/17 01:15:20;;;;;;;26.70;17.33;;;2.80;99.90;;;;;;6145611;23;20411;-86
2021/01/17 01:17:47;;;;;;;26.20;18.27;;;2.70;99.90;;;;;;6121748;23;20434;-86
2021/01/17 01:20:15;;;;;;;26.37;17.60;;;2.60;99.90;;;;;;6148207;23;20447;-86
2021/01/17 01:22:43;;;;;;;28.53;18.70;;;2.70;99.90;;;;;;6123916;23;20399;-86
2021/01/17 01:25:14;;;;;;;27.87;18.47;;;2.70;99.90;;;;;;6147165;23;20407;-85
2021/01/17 01:27:46;;;;;;;26.17;17.07;;;2.80;99.90;;;;;;6147662;23;20426;-86
2021/01/17 01:30:15;;;;;;;29.70;19.03;;;2.70;99.90;;;;;;6149288;23;20403;-85
2021/01/17 01:32:45;;;;;;;28.03;19.33;;;2.70;99.90;;;;;;6147220;23;20414;-85
2021/01/17 01:35:18;;;;;;;27.30;18.50;;;2.70;99.90;;;;;;6146820;23;20411;-86
2021/01/17 01:37:48;;;;;;;30.70;18.77;;;2.70;99.90;;;;;;6147885;23;20501;-85
2021/01/17 01:40:17;;;;;;;28.57;17.83;;;2.80;99.90;;;;;;6147990;23;20438;-85
2021/01/17 01:42:44;;;;;;;29.97;19.63;;;2.70;99.90;;;;;;6146245;23;20439;-86
2021/01/17 01:45:12;;;;;;;29.73;18.93;;;2.80;99.90;;;;;;6146997;23;20411;-85
2021/01/17 01:47:45;;;;;;;27.30;17.73;;;2.80;99.90;;;;;;6147642;23;20427;-85
2021/01/17 01:50:14;;;;;;;34.27;21.73;;;2.80;99.90;;;;;;6148377;23;20407;-85
2021/01/17 01:52:43;;;;;;;32.63;21.10;;;2.80;99.90;;;;;;6148043;23;20403;-86
2021/01/17 01:55:12;;;;;;;35.73;21.00;;;2.90;99.90;;;;;;6123156;23;20450;-86
2021/01/17 01:57:41;;;;;;;38.73;21.43;;;3.00;99.90;;;;;;6147356;23;20434;-86
2021/01/17 02:00:10;;;;;;;40.63;21.27;;;3.10;99.90;;;;;;6147971;23;20462;-86
2021/01/17 02:02:49;;;;;;;39.97;22.17;;;3.30;99.90;;;;;;6146851;23;20486;-86
2021/01/17 02:05:19;;;;;;;48.47;23.40;;;3.40;99.90;;;;;;6144882;23;20403;-87
2021/01/17 02:08:21;;;;;;;52.33;24.87;;;3.40;99.90;;;;;;6143321;23;20454;-86
2021/01/17 02:10:50;;;;;;;43.43;24.60;;;3.60;99.90;;;;;;6145656;23;20413;-86
2021/01/17 02:13:23;;;;;;;51.27;24.80;;;3.60;99.90;;;;;;6144946;23;20442;-85
2021/01/17 02:15:55;;;;;;;49.70;26.30;;;3.80;99.90;;;;;;6144659;23;20414;-86
2021/01/17 02:18:34;;;;;;;51.40;26.07;;;3.80;99.90;;;;;;6145031;23;20430;-86
2021/01/17 02:21:03;;;;;;;61.33;28.27;;;3.80;99.90;;;;;;6145543;23;20443;-86
2021/01/17 02:23:38;;;;;;;51.40;26.40;;;4.00;99.90;;;;;;6119855;23;20415;-86
2021/01/17 02:26:07;;;;;;;61.27;28.23;;;4.00;99.90;;;;;;6144638;23;20406;-86
2021/01/17 02:28:37;;;;;;;62.10;30.27;;;4.00;99.90;;;;;;6144762;23;20427;-86
2021/01/17 02:31:12;;;;;;;64.13;27.57;;;3.90;99.90;;;;;;6145022;23;20212;-86
2021/01/17 02:36:51;;;;;;;52.33;27.23;;;4.20;99.90;;;;;;6144713;23;20411;-86
2021/01/17 02:39:25;;;;;;;58.50;25.73;;;4.40;99.90;;;;;;6142778;23;20422;-86
2021/01/17 02:44:40;;;;;;;53.77;25.60;;;4.70;99.90;;;;;;6145635;23;20445;-86
2021/01/17 02:47:10;;;;;;;56.07;27.37;;;4.50;99.90;;;;;;6146720;23;20418;-86
2021/01/17 02:49:38;;;;;;;48.73;25.80;;;4.50;99.90;;;;;;6144845;23;20871;-86
2021/01/17 02:52:07;;;;;;;55.20;24.47;;;4.50;99.90;;;;;;6145402;23;20387;-85
2021/01/17 02:54:36;;;;;;;46.33;24.87;;;4.60;99.90;;;;;;6146190;23;20461;-86
2021/01/17 02:57:07;;;;;;;48.90;26.13;;;4.70;99.90;;;;;;6145882;23;20438;-86
2021/01/17 02:59:45;;;;;;;45.20;23.10;;;4.80;99.90;;;;;;6145869;23;20406;-86
2021/01/17 03:02:17;;;;;;;82.15;41.05;;;4.80;99.90;;;;;;6144164;23;20396;-86
2021/01/17 03:04:48;;;;;;;61.03;31.30;;;4.90;99.90;;;;;;6145463;23;20182;-86
2021/01/17 03:07:18;;;;;;;64.33;27.83;;;5.00;99.90;;;;;;6147158;23;20442;-86
2021/01/17 03:09:50;;;;;;;65.13;27.50;;;5.10;99.90;;;;;;6145743;23;20430;-86
2021/01/17 03:12:19;;;;;;;53.87;25.17;;;5.00;99.90;;;;;;6146000;23;20438;-85
2021/01/17 03:14:49;;;;;;;54.60;25.70;;;5.00;99.90;;;;;;6144592;23;20415;-86
2021/01/17 03:17:18;;;;;;;60.73;25.27;;;5.00;99.90;;;;;;6145286;23;20439;-86
2021/01/17 03:19:49;;;;;;;57.43;26.33;;;5.00;99.90;;;;;;6144259;23;20395;-85
2021/01/17 03:22:16;;;;;;;67.03;25.43;;;5.20;99.90;;;;;;6145689;23;20410;-86
2021/01/17 03:24:43;;;;;;;56.63;25.93;;;5.00;99.90;;;;;;6146529;23;20407;-85
2021/01/17 03:27:15;;;;;;;52.37;23.67;;;5.00;99.90;;;;;;6145739;23;20447;-85
2021/01/17 03:29:44;;;;;;;52.37;23.43;;;5.00;99.90;;;;;;6147870;23;20427;-86
2021/01/17 03:32:13;;;;;;;48.80;23.67;;;5.10;99.90;;;;;;6147322;23;20411;-85
2021/01/17 03:34:48;;;;;;;56.43;24.37;;;5.00;99.90;;;;;;6146340;23;20418;-85
2021/01/17 03:37:20;;;;;;;51.63;22.27;;;5.10;99.90;;;;;;6147098;23;20441;-85
2021/01/17 03:39:50;;;;;;;51.17;23.60;;;5.10;99.90;;;;;;6119591;23;20986;-85
2021/01/17 03:42:25;;;;;;;47.73;21.33;;;5.00;99.90;;;;;;6145295;23;20411;-85
2021/01/17 03:44:57;;;;;;;47.00;21.17;;;5.00;99.90;;;;;;6145319;23;20383;-85
2021/01/17 03:47:31;;;;;;;51.20;21.47;;;5.00;99.90;;;;;;6145971;23;20486;-86
2021/01/17 03:49:58;;;;;;;42.23;19.27;;;5.00;99.90;;;;;;6143960;23;20490;-85
2021/01/17 03:52:32;;;;;;;35.20;18.00;;;5.00;99.90;;;;;;6145056;23;20458;-85
2021/01/17 03:55:06;;;;;;;44.77;18.47;;;5.20;99.90;;;;;;6119609;23;20413;-86
2021/01/17 03:57:34;;;;;;;37.93;15.30;;;5.10;99.90;;;;;;6142325;23;20458;-86
2021/01/17 04:00:01;;;;;;;41.80;15.90;;;5.30;99.90;;;;;;6144120;23;20383;-85
2021/01/17 04:02:31;;;;;;;40.23;14.93;;;5.40;99.90;;;;;;6143993;23;20421;-85
2021/01/17 04:04:59;;;;;;;38.57;13.97;;;5.50;99.90;;;;;;6142576;23;20411;-85
2021/01/17 04:07:34;;;;;;;40.00;15.00;;;5.50;99.90;;;;;;6142990;23;20434;-85
2021/01/17 04:10:01;;;;;;;44.70;15.10;;;5.50;99.90;;;;;;6143856;23;20415;-86
2021/01/17 04:12:29;;;;;;;43.70;15.50;;;5.50;99.90;;;;;;6144515;23;20176;-86
2021/01/17 04:14:58;;;;;;;48.57;15.27;;;5.70;99.90;;;;;;6147302;23;20395;-85
2021/01/17 04:17:25;;;;;;;42.60;14.27;;;5.70;99.90;;;;;;6146902;23;20202;-85
2021/01/17 04:19:58;;;;;;;35.70;14.80;;;5.70;99.90;;;;;;6145880;23;20407;-85
2021/01/17 04:22:24;;;;;;;43.20;14.20;;;5.60;99.90;;;;;;6146283;23;20173;-85
2021/01/17 04:24:52;;;;;;;40.33;14.43;;;5.50;99.90;;;;;;6144865;23;20422;-85
2021/01/17 04:27:26;;;;;;;27.57;13.67;;;5.50;99.90;;;;;;6148058;23;20209;-84
2021/01/17 04:30:06;;;;;;;43.53;14.37;;;5.60;99.90;;;;;;6151817;23;20450;-86
2021/01/17 04:32:35;;;;;;;38.33;13.50;;;5.50;99.90;;;;;;6154079;23;20414;-86
2021/01/17 04:35:06;;;;;;;32.47;13.17;;;5.50;99.90;;;;;;6154709;23;20164;-86
2021/01/17 04:37:41;;;;;;;36.20;12.93;;;5.50;99.90;;;;;;6155019;23;20435;-86
2021/01/17 04:40:28;;;;;;;42.75;16.73;;;5.50;99.90;;;;;;6153938;23;20396;-85
2021/01/17 04:43:08;;;;;;;34.93;13.77;;;5.70;99.90;;;;;;6144523;23;20176;-85
2021/01/17 04:45:37;;;;;;;34.97;13.50;;;5.80;99.90;;;;;;6155256;23;20180;-86
2021/01/17 04:48:13;;;;;;;43.67;12.20;;;5.80;99.90;;;;;;6130451;23;20193;-86
2021/01/17 04:50:48;;;;;;;34.67;11.80;;;5.50;99.90;;;;;;6154506;23;20257;-85
2021/01/17 04:53:21;;;;;;;34.73;11.40;;;5.80;99.90;;;;;;6155305;23;20188;-86
2021/01/17 04:58:39;;;;;;;36.60;11.77;;;5.70;99.90;;;;;;6151692;23;20184;-85
2021/01/17 05:01:21;;;;;;;38.47;11.47;;;5.90;99.90;;;;;;6154419;23;20200;-85
2021/01/17 05:07:16;;;;;;;28.77;10.87;;;5.80;99.90;;;;;;6153114;23;20181;-85
2021/01/17 05:09:51;;;;;;;31.73;10.03;;;5.60;99.90;;;;;;6153398;23;20391;-85
2021/01/17 05:12:29;;;;;;;36.80;11.00;;;5.50;99.90;;;;;;6153055;23;20187;-86
2021/01/17 05:15:01;;;;;;;38.87;11.20;;;5.60;99.90;;;;;;6153639;23;20409;-86
2021/01/17 05:17:40;;;;;;;28.90;11.60;;;5.60;99.90;;;;;;6153040;23;20434;-86
2021/01/17 05:20:10;;;;;;;43.57;12.33;;;5.50;99.90;;;;;;6150989;23;20434;-85
2021/01/17 05:22:47;;;;;;;30.67;11.20;;;5.50;99.90;;;;;;6129139;23;20399;-85
2021/01/17 05:25:18;;;;;;;29.23;10.50;;;5.40;99.90;;;;;;6153728;23;20418;-86
2021/01/17 05:30:35;;;;;;;38.07;11.53;;;5.30;99.90;;;;;;6151813;23;20442;-85
2021/01/17 05:33:08;;;;;;;37.47;10.87;;;5.40;99.90;;;;;;6153731;23;20401;-85
2021/01/17 05:35:48;;;;;;;44.60;11.70;;;5.30;99.90;;;;;;6127371;23;20403;-85
2021/01/17 05:38:33;;;;;;;35.13;10.20;;;5.20;99.90;;;;;;6126947;23;20430;-85
2021/01/17 05:41:05;;;;;;;33.20;10.57;;;5.30;99.90;;;;;;6153940;23;20541;-86
2021/01/17 05:43:35;;;;;;;38.20;12.68;;;5.40;99.90;;;;;;6152779;23;20391;-85
2021/01/17 05:46:20;;;;;;;38.00;11.73;;;5.60;99.90;;;;;;6153868;23;20180;-86
2021/01/17 05:48:51;;;;;;;30.10;10.87;;;5.60;99.90;;;;;;6127720;23;20458;-86
2021/01/17 05:51:36;;;;;;;36.33;10.13;;;5.50;99.90;;;;;;6153536;23;20413;-85
2021/01/17 05:54:17;;;;;;;34.90;10.40;;;5.60;99.90;;;;;;6154459;23;20460;-84
2021/01/17 05:56:45;;;;;;;37.00;10.53;;;5.70;99.90;;;;;;6153524;23;20393;-85
2021/01/17 05:59:18;;;;;;;35.33;11.10;;;5.70;99.90;;;;;;6153115;23;20414;-85
2021/01/17 06:01:46;;;;;;;32.83;10.00;;;5.50;99.90;;;;;;6152950;23;20219;-86
2021/01/17 06:04:24;;;;;;;34.63;9.70;;;5.50;99.90;;;;;;6153169;23;20192;-86
2021/01/17 06:07:13;;;;;;;34.00;9.60;;;5.50;99.90;;;;;;6128244;23;20180;-86
2021/01/17 06:10:02;;;;;;;44.90;10.60;;;5.70;99.90;;;;;;6153142;23;20184;-85
2021/01/17 06:12:37;;;;;;;35.47;11.20;;;5.70;99.90;;;;;;6153033;23;20414;-84
2021/01/17 06:15:12;;;;;;;36.30;9.43;;;5.60;99.90;;;;;;6153841;23;20391;-87
2021/01/17 06:17:46;;;;;;;38.73;9.73;;;5.50;99.90;;;;;;6153367;23;20196;-85
2021/01/17 06:20:22;;;;;;;39.07;10.10;;;5.30;99.90;;;;;;6153365;23;20455;-85
2021/01/17 06:25:44;;;;;;;29.67;9.33;;;5.40;99.90;;;;;;6151711;23;20533;-85
2021/01/17 06:28:24;;;;;;;29.50;9.60;;;5.50;99.90;;;;;;6150748;23;20197;-85
2021/01/17 06:33:44;;;;;;;51.97;10.60;;;5.40;99.90;;;;;;6144883;23;20177;-85
2021/01/17 06:36:16;;;;;;;38.27;9.03;;;5.60;99.90;;;;;;6145767;23;20169;-85
2021/01/17 06:38:46;;;;;;;35.57;9.60;;;5.60;99.90;;;;;;6146775;23;20197;-85
2021/01/17 06:41:34;;;;;;;31.83;10.13;;;5.40;99.90;;;;;;6121686;23;20204;-86
2021/01/17 06:44:08;;;;;;;38.97;9.60;;;5.30;99.90;;;;;;6148982;23;20172;-85
2021/01/17 06:46:43;;;;;;;37.07;9.00;;;5.30;99.90;;;;;;6147985;23;20410;-85
2021/01/17 06:49:27;;;;;;;33.73;8.37;;;5.40;99.90;;;;;;6148187;23;20190;-85
2021/01/17 06:52:03;;;;;;;35.00;9.03;;;5.50;99.90;;;;;;6148093;23;20177;-85
2021/01/17 06:54:46;;;;;;;34.37;7.37;;;5.50;99.90;;;;;;6145236;23;20410;-85
2021/01/17 06:57:25;;;;;;;29.77;8.50;;;5.50;99.90;;;;;;6142526;23;20493;-85
2021/01/17 06:59:55;;;;;;;30.67;7.40;;;5.60;99.90;;;;;;6141324;23;20454;-85
2021/01/17 07:02:42;;;;;;;34.33;7.97;;;5.40;99.90;;;;;;6116986;23;20451;-85
2021/01/17 07:06:20;;;;;;;33.93;8.70;;;5.30;99.90;;;;;;6142837;23;20415;-85
2021/01/17 07:12:01;;;;;;;40.17;6.93;;;5.30;99.90;;;;;;6142176;23;20395;-85
2021/01/17 07:14:32;;;;;;;32.57;7.50;;;5.40;99.90;;;;;;6143292;23;20415;-85
2021/01/17 07:17:00;;;;;;;40.97;9.07;;;5.40;99.90;;;;;;6142575;23;20470;-85
2021/01/17 07:19:35;;;;;;;32.70;7.87;;;5.30;99.90;;;;;;6116995;23;20466;-85
2021/01/17 07:22:05;;;;;;;27.07;6.80;;;5.30;99.90;;;;;;6142469;23;20470;-85
2021/01/17 07:24:33;;;;;;;35.80;6.87;;;5.40;99.90;;;;;;6143016;23;20411;-85
2021/01/17 07:27:38;;;;;;;42.80;7.60;;;5.60;99.90;;;;;;6142509;23;20417;-85
2021/01/17 07:30:20;;;;;;;30.43;6.63;;;5.50;99.90;;;;;;6142339;23;20464;-85
2021/01/17 07:32:59;;;;;;;28.60;7.20;;;5.30;99.90;;;;;;6142828;23;20394;-85
2021/01/17 07:35:43;;;;;;;35.60;6.97;;;5.20;99.90;;;;;;6143841;23;20403;-85
2021/01/17 07:38:18;;;;;;;32.37;8.17;;;5.30;99.90;;;;;;6142880;23;20430;-86
2021/01/17 07:40:57;;;;;;;35.40;7.63;;;5.30;99.90;;;;;;6138445;23;20430;-86
2021/01/17 07:43:27;;;;;;;33.80;6.67;;;5.30;99.90;;;;;;6143125;23;20192;-85
2021/01/17 07:45:58;;;;;;;26.90;7.67;;;5.50;99.90;;;;;;6142165;23;20411;-85
2021/01/17 07:48:26;;;;;;;30.40;7.27;;;5.40;99.90;;;;;;6141099;23;20224;-85
2021/01/17 08:00:26;;;;;;;30.20;6.07;;;5.80;99.90;;;;;;5974759;23;20486;-86
2021/01/17 08:03:01;;;;;;;34.93;6.60;;;5.70;99.90;;;;;;6141806;23;20165;-85
2021/01/17 08:06:04;;;;;;;34.30;6.60;;;5.70;99.90;;;;;;6142033;23;20395;-85
2021/01/17 08:09:07;;;;;;;38.97;7.03;;;5.50;99.90;;;;;;6144773;23;20196;-86
2021/01/17 08:11:57;;;;;;;31.40;6.47;;;5.50;99.90;;;;;;6142043;23;20199;-85
2021/01/17 08:14:33;;;;;;;32.00;7.37;;;5.40;99.90;;;;;;6142718;23;20176;-85
2021/01/17 08:17:10;;;;;;;26.30;6.40;;;5.50;99.90;;;;;;6141790;23;20273;-85
2021/01/17 08:19:56;;;;;;;37.43;6.97;;;5.70;99.90;;;;;;6141587;23;20173;-85
2021/01/17 08:22:44;;;;;;;37.97;7.27;;;5.80;99.90;;;;;;6117173;23;20438;-85
2021/01/17 08:25:44;;;;;;;25.30;6.13;;;5.80;99.90;;;;;;6142597;23;20402;-85
2021/01/17 08:34:34;;;;;;;30.53;6.63;;;5.70;99.90;;;;;;6084362;23;20257;-85
2021/01/17 08:37:19;;;;;;;22.60;5.67;;;5.80;99.90;;;;;;6101862;23;20216;-85
2021/01/17 08:39:47;;;;;;;29.23;6.07;;;5.70;99.90;;;;;;6143342;23;20507;-85
2021/01/17 08:42:35;;;;;;;30.40;6.23;;;5.90;99.90;;;;;;6143900;23;20445;-85
2021/01/17 08:45:45;;;;;;;39.37;6.33;;;6.00;99.90;;;;;;6144790;23;20171;-88
2021/01/17 08:48:50;;;;;;;36.63;5.83;;;6.00;99.90;;;;;;6143796;23;20486;-85
2021/01/17 08:51:35;;;;;;;23.93;6.37;;;5.90;99.90;;;;;;6146928;23;20415;-87
2021/01/17 08:54:51;;;;;;;32.63;6.37;;;6.00;99.90;;;;;;6143578;23;20907;-85
2021/01/17 08:58:05;;;;;;;26.83;5.93;;;6.10;99.90;;;;;;6143496;23;20443;-85
2021/01/17 09:01:04;;;;;;;33.45;7.57;;;6.20;99.90;;;;;;6143646;23;20392;-86
2021/01/17 09:03:35;;;;;;;29.10;6.00;;;6.10;99.90;;;;;;6136663;23;20180;-85
2021/01/17 09:06:05;;;;;;;31.53;6.37;;;6.20;99.90;;;;;;6144364;23;20200;-85
2021/01/17 09:08:34;;;;;;;29.90;6.70;;;6.30;99.90;;;;;;6144696;23;20203;-85
2021/01/17 09:11:31;;;;;;;34.30;8.10;;;6.30;99.90;;;;;;6148048;23;20229;-85
2021/01/17 09:14:27;;;;;;;21.80;6.70;;;6.40;99.90;;;;;;6120017;23;20219;-86
2021/01/17 09:17:02;;;;;;;28.50;5.90;;;6.20;99.90;;;;;;6141853;23;20180;-86
2021/01/17 09:19:35;;;;;;;28.97;6.77;;;6.20;99.90;;;;;;6147403;23;20168;-86
2021/01/17 09:22:09;;;;;;;19.83;6.17;;;6.30;99.90;;;;;;6148256;23;20227;-85
2021/01/17 09:24:45;;;;;;;31.93;7.17;;;6.20;99.90;;;;;;6147953;23;20202;-85
2021/01/17 09:27:12;;;;;;;27.43;5.83;;;6.30;99.90;;;;;;6146666;23;20497;-85
2021/01/17 09:29:43;;;;;;;20.20;5.50;;;6.30;99.90;;;;;;6145275;23;20192;-86
2021/01/17 09:32:17;;;;;;;30.58;7.18;;;6.30;99.90;;;;;;6145580;23;20766;-86
2021/01/17 09:34:49;;;;;;;25.30;5.83;;;6.30;99.90;;;;;;6146612;23;20183;-86
2021/01/17 09:37:24;;;;;;;24.30;5.37;;;6.40;99.90;;;;;;6146862;23;20216;-85
2021/01/17 09:40:33;;;;;;;22.93;4.83;;;6.40;99.90;;;;;;6149098;23;20558;-86
2021/01/17 09:46:11;;;;;;;20.43;5.70;;;6.50;99.90;;;;;;6148339;23;20192;-87
2021/01/17 09:49:05;;;;;;;26.73;6.37;;;6.50;99.90;;;;;;6126006;23;20200;-87
2021/01/17 09:51:56;;;;;;;20.43;4.50;;;6.60;99.90;;;;;;6125087;23;20212;-87
2021/01/17 09:57:29;;;;;;;26.87;5.63;;;6.70;99.90;;;;;;6138916;23;20212;-85
2021/01/17 10:00:20;;;;;;;23.40;4.90;;;6.80;99.90;;;;;;6064217;23;20202;-87
2021/01/17 10:05:36;;;;;;;22.10;5.50;;;6.90;99.90;;;;;;6146160;23;20196;-86
2021/01/17 10:08:19;;;;;;;28.47;5.63;;;7.00;99.90;;;;;;6147096;23;20560;-85
2021/01/17 10:13:21;;;;;;;23.47;5.73;;;7.20;99.90;;;;;;6119106;23;20201;-84
2021/01/17 10:25:37;;;;;;;25.98;6.60;;;7.10;99.90;;;;;;6148666;23;20375;-86
2021/01/17 10:31:24;;;;;;;24.03;5.20;;;7.20;99.90;;;;;;6153178;23;20180;-86
2021/01/17 10:34:42;;;;;;;26.83;5.33;;;7.20;99.90;;;;;;6153028;23;20165;-86
2021/01/17 10:38:01;;;;;;;21.27;5.00;;;7.30;99.90;;;;;;6152820;23;20204;-85
2021/01/17 10:43:33;;;;;;;21.90;5.87;;;7.30;99.90;;;;;;6118781;23;20179;-86
2021/01/17 10:49:00;;;;;;;24.27;6.13;;;7.30;99.90;;;;;;6150866;23;20201;-86
2021/01/17 10:54:41;;;;;;;22.63;5.93;;;7.10;99.90;;;;;;6151568;23;20204;-86
2021/01/17 10:57:14;;;;;;;25.97;7.10;;;7.00;99.90;;;;;;6148791;23;20214;-85
2021/01/17 10:59:50;;;;;;;21.13;5.00;;;7.10;99.90;;;;;;6145775;23;20175;-85
2021/01/17 11:02:30;;;;;;;25.73;6.50;;;7.20;99.90;;;;;;6147674;23;20232;-86
2021/01/17 11:05:02;;;;;;;22.23;5.87;;;7.30;99.90;;;;;;6145218;23;20205;-86
2021/01/17 11:07:39;;;;;;;21.27;5.60;;;7.30;99.90;;;;;;6143923;23;20196;-86
2021/01/17 11:10:14;;;;;;;28.47;6.00;;;7.20;99.90;;;;;;6145056;23;20199;-85
2021/01/17 11:12:44;;;;;;;22.33;5.77;;;7.40;99.90;;;;;;6144435;23;20180;-85
2021/01/17 11:15:13;;;;;;;18.07;5.67;;;7.40;99.90;;;;;;6145675;23;20204;-86
2021/01/17 11:17:43;;;;;;;18.70;5.57;;;7.50;99.90;;;;;;6144532;23;20280;-86
2021/01/17 11:20:12;;;;;;;22.77;5.93;;;7.40;99.90;;;;;;6144842;23;20244;-86
2021/01/17 11:22:42;;;;;;;16.53;6.10;;;7.40;99.90;;;;;;6147576;23;20204;-85
2021/01/17 11:25:18;;;;;;;23.47;6.97;;;7.50;99.90;;;;;;6146087;23;20498;-85
2021/01/17 11:27:47;;;;;;;19.13;5.60;;;7.50;99.90;;;;;;6146203;23;20204;-85
2021/01/17 11:30:20;;;;;;;22.17;5.67;;;7.60;99.90;;;;;;6145444;23;20177;-85
2021/01/17 11:32:46;;;;;;;26.27;5.57;;;7.60;99.90;;;;;;6145603;23;20184;-85
2021/01/17 11:35:32;;;;;;;16.80;5.00;;;7.70;99.90;;;;;;6148056;23;20160;-86
2021/01/17 11:38:00;;;;;;;20.80;6.17;;;7.80;99.90;;;;;;6142659;23;20196;-86
2021/01/17 11:40:28;;;;;;;19.43;5.10;;;7.70;99.90;;;;;;6145549;23;20176;-86
2021/01/17 11:43:13;;;;;;;21.00;4.80;;;7.80;99.90;;;;;;6147639;23;20168;-87
2021/01/17 11:45:43;;;;;;;16.43;4.73;;;7.70;99.90;;;;;;6144801;23;20243;-86
2021/01/17 11:48:32;;;;;;;23.93;5.60;;;7.80;99.90;;;;;;6148244;23;20220;-86
2021/01/17 11:51:01;;;;;;;17.33;5.60;;;7.80;99.90;;;;;;6147567;23;20392;-86
2021/01/17 11:53:30;;;;;;;17.00;4.87;;;7.70;99.90;;;;;;6122291;23;20207;-86
2021/01/17 11:56:00;;;;;;;16.90;4.23;;;7.70;99.90;;;;;;6147827;23;20613;-86
2021/01/17 11:58:38;;;;;;;18.47;4.63;;;7.70;99.90;;;;;;6147465;23;20243;-86
2021/01/17 12:01:06;;;;;;;13.27;5.60;;;7.70;99.90;;;;;;6146349;23;20559;-86
2021/01/17 12:03:36;;;;;;;21.37;5.37;;;7.60;99.90;;;;;;6145938;23;20179;-87
2021/01/17 12:06:15;;;;;;;19.47;5.10;;;7.60;99.90;;;;;;6145797;23;20173;-86
2021/01/17 12:09:08;;;;;;;19.93;6.93;;;7.60;99.90;;;;;;6146044;23;20196;-86
2021/01/17 12:11:38;;;;;;;14.27;3.73;;;7.70;99.90;;;;;;6118192;23;20181;-85
2021/01/17 12:14:17;;;;;;;20.53;4.40;;;7.60;99.90;;;;;;6143932;23;20169;-85
2021/01/17 12:16:45;;;;;;;22.57;3.97;;;7.60;99.90;;;;;;6144015;23;20199;-85
2021/01/17 12:19:13;;;;;;;17.90;4.07;;;7.70;99.90;;;;;;6145930;23;20233;-86
2021/01/17 12:21:42;;;;;;;11.27;3.03;;;7.80;99.90;;;;;;6145144;23;20196;-86
2021/01/17 12:24:15;;;;;;;14.53;4.97;;;7.90;99.90;;;;;;6143896;23;20248;-85
2021/01/17 12:26:45;;;;;;;24.37;5.37;;;7.90;99.90;;;;;;6147738;23;20177;-85
2021/01/17 12:29:29;;;;;;;14.20;4.33;;;7.90;99.90;;;;;;6143213;23;20176;-85
2021/01/17 12:32:11;;;;;;;17.03;4.70;;;8.00;99.90;;;;;;6145384;23;20228;-86
2021/01/17 12:34:38;;;;;;;15.23;5.03;;;8.00;99.90;;;;;;6145575;23;20172;-86
2021/01/17 12:37:05;;;;;;;12.43;4.67;;;8.00;99.90;;;;;;6117736;23;20200;-86
2021/01/17 12:39:32;;;;;;;13.03;3.87;;;8.10;99.90;;;;;;6119115;23;20180;-86
2021/01/17 12:42:24;;;;;;;17.97;4.30;;;8.00;99.90;;;;;;6103798;23;20302;-86
2021/01/17 12:44:55;;;;;;;13.60;3.77;;;7.90;99.90;;;;;;6090163;23;20178;-85
2021/01/17 12:47:22;;;;;;;18.03;4.47;;;7.90;99.90;;;;;;6087065;23;20202;-86
2021/01/17 12:49:59;;;;;;;14.20;3.73;;;7.90;99.90;;;;;;6087742;23;20166;-86
2021/01/17 12:52:26;;;;;;;20.43;5.27;;;7.90;99.90;;;;;;6089340;23;20615;-86
2021/01/17 12:54:57;;;;;;;11.93;3.90;;;8.00;99.90;;;;;;6089495;23;20178;-86
2021/01/17 12:57:24;;;;;;;17.60;4.87;;;8.00;99.90;;;;;;6087866;23;20217;-86
2021/01/17 12:59:54;;;;;;;17.70;3.77;;;8.10;99.90;;;;;;6088240;23;20182;-85
2021/01/17 13:02:21;;;;;;;12.80;3.80;;;8.10;99.90;;;;;;6086431;23;20206;-86
2021/01/17 13:04:48;;;;;;;11.63;3.90;;;8.10;99.90;;;;;;6090247;23;20170;-86
2021/01/17 13:07:15;;;;;;;15.07;4.03;;;7.90;99.90;;;;;;6088175;23;20208;-86
2021/01/17 13:09:43;;;;;;;12.97;4.10;;;7.80;99.90;;;;;;6087037;23;20178;-86
2021/01/17 13:12:11;;;;;;;19.77;4.87;;;7.80;99.90;;;;;;6088004;23;20182;-86
2021/01/17 13:14:41;;;;;;;12.93;3.70;;;7.90;99.90;;;;;;6089274;23;20182;-86
2021/01/17 13:17:10;;;;;;;11.33;4.03;;;7.90;99.90;;;;;;6086962;23;20647;-86
2021/01/17 13:19:41;;;;;;;17.07;3.90;;;7.90;99.90;;;;;;6088041;23;20200;-86
2021/01/17 13:22:08;;;;;;;9.53;3.60;;;7.80;99.90;;;;;;6087955;23;20229;-86
2021/01/17 13:24:35;;;;;;;13.27;3.50;;;7.90;99.90;;;;;;6088016;23;20185;-86
2021/01/17 13:27:03;;;;;;;11.57;3.50;;;7.90;99.90;;;;;;6089321;23;20182;-86
2021/01/17 13:29:32;;;;;;;15.43;2.87;;;7.90;99.90;;;;;;6088400;23;20214;-86
2021/01/17 13:32:01;;;;;;;13.17;3.50;;;8.00;99.90;;;;;;6062142;23;20259;-86
2021/01/17 13:34:29;;;;;;;9.43;4.07;;;8.00;99.90;;;;;;6087076;23;20182;-86
2021/01/17 13:36:56;;;;;;;11.97;3.47;;;8.00;99.90;;;;;;6061634;23;20178;-85
2021/01/17 13:39:24;;;;;;;10.83;2.87;;;7.90;99.90;;;;;;6095466;23;20938;-86
2021/01/17 13:41:52;;;;;;;13.33;3.47;;;7.90;99.90;;;;;;6145167;23;20200;-86
2021/01/17 13:44:19;;;;;;;11.50;2.93;;;8.00;99.90;;;;;;6145818;23;20172;-86
2021/01/17 13:46:50;;;;;;;11.13;3.00;;;7.80;99.90;;;;;;6145292;23;20183;-86
2021/01/17 13:49:16;;;;;;;11.00;3.13;;;7.80;99.90;;;;;;6146100;23;20184;-86
2021/01/17 13:52:20;;;;;;;5.70;2.43;;;7.90;99.90;;;;;;6147198;23;20192;-86
2021/01/17 13:54:49;;;;;;;11.07;2.93;;;8.00;99.90;;;;;;6122179;23;20187;-86
2021/01/17 13:57:19;;;;;;;12.50;3.10;;;8.30;99.90;;;;;;6146593;23;20228;-86
2021/01/17 13:59:46;;;;;;;11.83;3.17;;;8.30;99.90;;;;;;6144800;23;20176;-86
2021/01/17 14:02:14;;;;;;;10.07;2.57;;;8.20;99.90;;;;;;6145333;23;20273;-86
2021/01/17 14:04:41;;;;;;;12.00;3.27;;;8.10;99.90;;;;;;6118785;23;20177;-86
2021/01/17 14:07:10;;;;;;;8.63;3.17;;;8.00;99.90;;;;;;6142920;23;20196;-86
2021/01/17 14:09:40;;;;;;;8.37;3.00;;;8.00;99.90;;;;;;6143359;23;20204;-86
2021/01/17 14:12:08;;;;;;;8.80;3.37;;;8.10;99.90;;;;;;6144905;23;20173;-85
2021/01/17 14:14:35;;;;;;;12.27;3.60;;;8.10;99.90;;;;;;6144527;23;20181;-86
2021/01/17 14:23:10;;;;;;;11.03;2.83;;;7.90;99.90;;;;;;6150828;23;20231;-86
2021/01/17 14:25:37;;;;;;;12.13;2.80;;;7.70;99.90;;;;;;6143131;23;20172;-86
2021/01/17 14:28:07;;;;;;;12.50;2.87;;;7.70;99.90;;;;;;6143378;23;20204;-86
2021/01/17 14:30:35;;;;;;;10.90;2.83;;;7.70;99.90;;;;;;6142787;23;20181;-86
2021/01/17 14:33:02;;;;;;;9.17;2.97;;;7.80;99.90;;;;;;6144946;23;20176;-86
2021/01/17 14:35:29;;;;;;;10.17;2.87;;;7.80;99.90;;;;;;6145361;23;20208;-86
2021/01/17 14:37:56;;;;;;;8.93;2.73;;;7.80;99.90;;;;;;6141309;23;20204;-85
2021/01/17 14:40:24;;;;;;;11.83;2.67;;;7.90;99.90;;;;;;6141113;23;20176;-85
2021/01/17 14:42:53;;;;;;;12.10;3.73;;;8.10;99.90;;;;;;6141635;23;20208;-85